createdAt,value
2023-05-22T00:01:06.802Z,18.40
2023-05-22T00:03:36.491Z,18.40
2023-05-22T00:06:10.157Z,18.40
2023-05-22T00:08:38.205Z,18.30
2023-05-22T00:11:06.420Z,18.30
2023-05-22T00:13:34.506Z,18.30
2023-05-22T00:16:04.326Z,18.30
2023-05-22T00:18:32.799Z,18.20
2023-05-22T00:21:00.882Z,18.20
2023-05-22T00:23:30.055Z,18.20
2023-05-22T00:25:58.287Z,18.10
2023-05-22T00:28:26.475Z,18.10
2023-05-22T00:30:54.710Z,18.00
2023-05-22T00:33:24.164Z,18.00
2023-05-22T00:35:52.203Z,17.90
2023-05-22T00:38:32.297Z,18.00
2023-05-22T00:41:00.749Z,17.90
2023-05-22T00:43:29.198Z,17.90
2023-05-22T00:45:57.446Z,17.90
2023-05-22T00:48:27.068Z,17.80
2023-05-22T00:50:58.053Z,17.90
2023-05-22T00:53:28.164Z,17.80
2023-05-22T00:55:56.679Z,17.80
2023-05-22T00:58:27.926Z,17.80
2023-05-22T01:00:56.390Z,17.80
2023-05-22T01:03:25.953Z,17.70
2023-05-22T01:05:56.748Z,17.70
2023-05-22T01:08:25.135Z,17.60
2023-05-22T01:10:58.101Z,17.60
2023-05-22T01:13:31.328Z,17.50
2023-05-22T01:16:07.373Z,17.50
2023-05-22T01:18:42.265Z,17.50
2023-05-22T01:21:18.387Z,17.50
2023-05-22T01:24:14.028Z,17.50
2023-05-22T01:27:17.702Z,17.40
2023-05-22T01:29:52.086Z,17.40
2023-05-22T01:32:24.352Z,17.40
2023-05-22T01:34:56.247Z,17.40
2023-05-22T01:37:25.577Z,17.40
2023-05-22T01:39:54.669Z,17.40
2023-05-22T01:42:23.051Z,17.40
2023-05-22T01:44:51.273Z,17.40
2023-05-22T01:47:21.094Z,17.40
2023-05-22T01:49:49.210Z,17.30
2023-05-22T01:52:26.710Z,17.30
2023-05-22T01:55:03.676Z,17.30
2023-05-22T01:57:37.550Z,17.30
2023-05-22T02:00:10.899Z,17.30
2023-05-22T02:02:43.248Z,17.30
2023-05-22T02:05:13.560Z,17.30
2023-05-22T02:07:43.709Z,17.20
2023-05-22T02:10:14.436Z,17.20
2023-05-22T02:12:42.872Z,17.20
2023-05-22T02:15:11.493Z,17.10
2023-05-22T02:17:41.501Z,17.10
2023-05-22T02:20:14.612Z,17.00
2023-05-22T02:22:44.143Z,17.00
2023-05-22T02:25:15.040Z,17.00
2023-05-22T02:27:43.925Z,16.90
2023-05-22T02:30:12.884Z,16.90
2023-05-22T02:32:42.668Z,16.90
2023-05-22T02:35:11.613Z,16.90
2023-05-22T02:37:40.205Z,16.80
2023-05-22T02:40:10.095Z,16.80
2023-05-22T02:42:38.206Z,16.80
2023-05-22T02:45:07.403Z,16.80
2023-05-22T02:47:35.753Z,16.70
2023-05-22T02:50:05.587Z,16.70
2023-05-22T02:52:33.909Z,16.70
2023-05-22T02:55:02.144Z,16.60
2023-05-22T02:57:30.130Z,16.60
2023-05-22T02:59:59.260Z,16.60
2023-05-22T03:02:28.404Z,16.50
2023-05-22T03:04:59.073Z,16.50
2023-05-22T03:07:29.708Z,16.50
2023-05-22T03:09:57.922Z,16.40
2023-05-22T03:12:26.795Z,16.40
2023-05-22T03:14:54.844Z,16.40
2023-05-22T03:17:22.886Z,16.40
2023-05-22T03:19:51.179Z,16.30
2023-05-22T03:22:19.608Z,16.30
2023-05-22T03:24:49.053Z,16.30
2023-05-22T03:27:17.764Z,16.30
2023-05-22T03:29:46.029Z,16.40
2023-05-22T03:32:14.109Z,16.40
2023-05-22T03:34:43.437Z,16.40
2023-05-22T03:37:11.731Z,16.40
2023-05-22T03:39:40.679Z,16.50
2023-05-22T03:42:10.120Z,16.50
2023-05-22T03:44:38.391Z,16.50
2023-05-22T03:47:08.093Z,16.40
2023-05-22T03:49:36.243Z,16.50
2023-05-22T03:52:04.642Z,16.50
2023-05-22T03:54:32.747Z,16.50
2023-05-22T03:57:00.787Z,16.40
2023-05-22T03:59:30.275Z,16.50
2023-05-22T04:02:01.255Z,16.50
2023-05-22T04:04:29.654Z,16.50
2023-05-22T04:06:58.430Z,16.50
2023-05-22T04:09:28.497Z,16.50
2023-05-22T04:11:56.668Z,16.60
2023-05-22T04:14:24.665Z,16.60
2023-05-22T04:16:54.074Z,16.70
2023-05-22T04:19:22.761Z,16.80
2023-05-22T04:21:51.172Z,16.80
2023-05-22T04:24:19.811Z,16.90
2023-05-22T04:26:48.018Z,17.00
2023-05-22T04:29:16.600Z,17.10
2023-05-22T04:31:45.101Z,17.10
2023-05-22T04:34:18.605Z,17.20
2023-05-22T04:36:48.139Z,17.30
2023-05-22T04:39:16.553Z,17.30
2023-05-22T04:41:44.588Z,17.50
2023-05-22T04:44:12.639Z,17.60
2023-05-22T04:46:40.829Z,17.70
2023-05-22T04:49:08.899Z,17.70
2023-05-22T04:51:38.304Z,17.80
2023-05-22T04:54:06.392Z,17.80
2023-05-22T04:56:36.733Z,17.90
2023-05-22T04:59:09.353Z,18.00
2023-05-22T05:01:38.251Z,18.10
2023-05-22T05:04:06.669Z,18.10
2023-05-22T05:06:35.912Z,18.20
2023-05-22T05:09:05.467Z,18.20
2023-05-22T05:11:33.561Z,18.20
2023-05-22T05:14:01.644Z,18.30
2023-05-22T05:16:29.833Z,18.30
2023-05-22T05:18:57.975Z,18.40
2023-05-22T05:21:28.011Z,18.40
2023-05-22T05:23:56.183Z,18.40
2023-05-22T05:26:27.341Z,18.50
2023-05-22T05:28:56.709Z,18.50
2023-05-22T05:31:24.968Z,18.50
2023-05-22T05:33:53.452Z,18.60
2023-05-22T05:36:21.814Z,18.60
2023-05-22T05:38:49.862Z,18.60
2023-05-22T05:41:19.214Z,18.70
2023-05-22T05:43:48.615Z,18.70
2023-05-22T05:46:16.717Z,18.80
2023-05-22T05:48:45.078Z,18.80
2023-05-22T05:51:13.316Z,18.80
2023-05-22T05:53:41.777Z,18.80
2023-05-22T05:56:10.628Z,18.80
2023-05-22T05:58:39.032Z,18.90
2023-05-22T06:01:08.940Z,18.90
2023-05-22T06:03:37.365Z,19.00
2023-05-22T06:06:06.157Z,19.00
2023-05-22T06:08:34.610Z,19.00
2023-05-22T06:11:03.625Z,19.10
2023-05-22T06:13:31.813Z,19.10
2023-05-22T06:16:02.336Z,19.20
2023-05-22T06:18:34.297Z,19.20
2023-05-22T06:21:02.332Z,19.30
2023-05-22T06:23:30.947Z,19.30
2023-05-22T06:25:59.015Z,19.30
2023-05-22T06:28:27.011Z,19.30
2023-05-22T06:30:54.973Z,19.30
2023-05-22T06:33:23.131Z,19.40
2023-05-22T06:35:52.693Z,19.30
2023-05-22T06:38:20.737Z,19.50
2023-05-22T06:40:49.167Z,19.50
2023-05-22T06:43:17.226Z,19.60
2023-05-22T06:45:45.561Z,19.60
2023-05-22T06:48:13.662Z,19.70
2023-05-22T06:50:41.687Z,19.70
2023-05-22T06:53:11.344Z,19.70
2023-05-22T06:55:39.537Z,19.80
2023-05-22T06:58:07.873Z,19.80
2023-05-22T07:00:35.931Z,19.80
2023-05-22T07:03:06.310Z,19.90
2023-05-22T07:05:34.428Z,19.90
2023-05-22T07:08:03.276Z,20.00
2023-05-22T07:10:32.689Z,19.90
2023-05-22T07:13:00.787Z,19.90
2023-05-22T07:15:28.774Z,19.90
2023-05-22T07:17:57.020Z,20.00
2023-05-22T07:20:26.755Z,20.00
2023-05-22T07:22:54.776Z,20.10
2023-05-22T07:25:22.740Z,20.10
2023-05-22T07:27:52.069Z,20.10
2023-05-22T07:30:20.062Z,20.10
2023-05-22T07:32:49.257Z,20.20
2023-05-22T07:35:17.595Z,20.20
2023-05-22T07:37:45.731Z,20.30
2023-05-22T07:40:14.121Z,20.30
2023-05-22T07:42:42.097Z,20.30
2023-05-22T07:45:12.406Z,20.30
2023-05-22T07:47:40.876Z,20.40
2023-05-22T07:50:10.157Z,20.40
2023-05-22T07:52:38.228Z,20.50
2023-05-22T07:55:07.851Z,20.50
2023-05-22T07:57:37.081Z,20.60
2023-05-22T08:00:13.934Z,20.60
2023-05-22T08:02:44.068Z,20.70
2023-05-22T08:05:12.401Z,20.70
2023-05-22T08:07:40.682Z,20.80
2023-05-22T08:10:15.183Z,20.80
2023-05-22T08:12:43.467Z,20.90
2023-05-22T08:15:12.661Z,20.90
2023-05-22T08:17:40.777Z,21.00
2023-05-22T08:20:12.003Z,21.10
2023-05-22T08:22:41.459Z,21.10
2023-05-22T08:25:10.380Z,21.10
2023-05-22T08:27:38.376Z,21.20
2023-05-22T08:30:07.876Z,21.20
2023-05-22T08:32:36.084Z,21.20
2023-05-22T08:35:04.145Z,21.30
2023-05-22T08:37:33.536Z,21.30
2023-05-22T08:40:01.602Z,21.40
2023-05-22T08:42:29.695Z,21.50
2023-05-22T08:45:00.994Z,21.50
2023-05-22T08:47:29.468Z,21.50
2023-05-22T08:49:59.131Z,21.60
2023-05-22T08:52:34.391Z,21.70
2023-05-22T08:55:05.375Z,21.80
2023-05-22T08:57:34.009Z,21.80
2023-05-22T09:00:02.313Z,21.90
2023-05-22T09:02:30.347Z,22.10
2023-05-22T09:04:58.385Z,22.10
2023-05-22T09:07:27.914Z,22.20
2023-05-22T09:09:57.417Z,22.20
2023-05-22T09:12:27.265Z,22.30
2023-05-22T09:14:56.025Z,22.50
2023-05-22T09:17:24.088Z,22.60
2023-05-22T09:19:52.240Z,22.70
2023-05-22T09:22:20.958Z,22.80
2023-05-22T09:24:50.531Z,22.90
2023-05-22T09:27:24.100Z,22.90
2023-05-22T09:29:54.017Z,22.90
2023-05-22T09:32:22.224Z,23.00
2023-05-22T09:34:50.329Z,22.90
2023-05-22T09:37:19.188Z,22.90
2023-05-22T09:39:51.481Z,22.90
2023-05-22T09:42:20.820Z,22.90
2023-05-22T09:44:50.362Z,22.90
2023-05-22T09:47:18.468Z,22.90
2023-05-22T09:49:47.552Z,22.90
2023-05-22T09:52:18.068Z,22.90
2023-05-22T09:54:55.256Z,22.80
2023-05-22T09:57:26.632Z,22.90
2023-05-22T09:59:58.543Z,22.90
2023-05-22T10:02:29.052Z,23.00
2023-05-22T10:04:57.895Z,23.10
2023-05-22T10:07:31.261Z,23.10
2023-05-22T10:10:05.710Z,23.20
2023-05-22T10:12:37.673Z,23.20
2023-05-22T10:15:07.597Z,23.20
2023-05-22T10:17:36.041Z,23.30
2023-05-22T10:20:07.898Z,23.40
2023-05-22T10:22:38.052Z,23.50
2023-05-22T10:25:09.814Z,23.60
2023-05-22T10:27:40.817Z,23.70
2023-05-22T10:30:19.762Z,23.80
2023-05-22T10:32:55.064Z,23.90
2023-05-22T10:35:29.408Z,23.90
2023-05-22T10:38:11.845Z,23.90
2023-05-22T10:40:40.377Z,23.90
2023-05-22T10:43:09.920Z,23.90
2023-05-22T10:45:38.092Z,23.90
2023-05-22T10:48:06.907Z,24.00
2023-05-22T10:50:35.318Z,24.10
2023-05-22T10:53:24.276Z,24.10
2023-05-22T10:55:53.766Z,24.30
2023-05-22T10:58:30.121Z,24.40
2023-05-22T11:01:10.975Z,24.60
2023-05-22T11:03:53.288Z,25.10
2023-05-22T11:06:35.928Z,25.70
2023-05-22T11:09:30.786Z,26.30
2023-05-22T11:12:22.507Z,26.90
2023-05-22T11:14:56.640Z,27.50
2023-05-22T11:17:27.668Z,27.90
2023-05-22T11:20:00.612Z,28.30
2023-05-22T11:22:40.136Z,28.70
2023-05-22T11:25:13.006Z,28.90
2023-05-22T11:27:42.189Z,29.20
2023-05-22T11:30:13.270Z,29.50
2023-05-22T11:32:44.503Z,29.90
2023-05-22T11:35:16.127Z,30.20
2023-05-22T11:37:44.496Z,30.30
2023-05-22T11:40:14.923Z,30.40
2023-05-22T11:42:43.293Z,30.60
2023-05-22T11:45:13.277Z,30.80
2023-05-22T11:47:41.874Z,31.00
2023-05-22T11:50:11.568Z,31.30
2023-05-22T11:52:41.704Z,31.50
2023-05-22T11:55:11.238Z,31.70
2023-05-22T11:57:39.791Z,31.70
2023-05-22T12:00:10.721Z,31.70
2023-05-22T12:02:40.391Z,31.60
2023-05-22T12:05:11.888Z,31.20
2023-05-22T12:07:40.043Z,31.00
2023-05-22T12:10:08.559Z,31.00
2023-05-22T12:12:36.620Z,31.20
2023-05-22T12:15:07.400Z,31.40
2023-05-22T12:17:37.413Z,31.60
2023-05-22T12:20:08.399Z,31.80
2023-05-22T12:22:42.431Z,31.90
2023-05-22T12:25:16.377Z,31.80
2023-05-22T12:27:45.634Z,31.50
2023-05-22T12:30:15.235Z,31.20
2023-05-22T12:32:48.370Z,31.10
2023-05-22T12:35:18.435Z,31.30
2023-05-22T12:37:50.579Z,31.40
2023-05-22T12:40:19.683Z,31.70
2023-05-22T12:42:49.905Z,32.20
2023-05-22T12:45:19.082Z,32.50
2023-05-22T12:47:47.173Z,32.40
2023-05-22T12:50:15.493Z,32.50
2023-05-22T12:52:44.890Z,32.40
2023-05-22T12:55:13.079Z,32.30
2023-05-22T12:57:41.076Z,32.70
2023-05-22T13:00:10.163Z,33.10
2023-05-22T13:02:38.244Z,33.60
2023-05-22T13:05:07.225Z,34.10
2023-05-22T13:07:35.291Z,34.70
2023-05-22T13:10:06.803Z,34.80
2023-05-22T13:12:35.094Z,34.40
2023-05-22T13:15:04.047Z,33.70
2023-05-22T13:17:32.255Z,33.60
2023-05-22T13:20:00.467Z,33.80
2023-05-22T13:22:28.449Z,34.20
2023-05-22T13:24:56.462Z,34.60
2023-05-22T13:27:26.916Z,35.10
2023-05-22T13:29:55.543Z,35.30
2023-05-22T13:32:23.633Z,35.20
2023-05-22T13:34:51.743Z,35.00
2023-05-22T13:37:20.069Z,35.00
2023-05-22T13:39:48.131Z,35.20
2023-05-22T13:42:16.208Z,35.50
2023-05-22T13:44:46.093Z,36.00
2023-05-22T13:47:14.456Z,36.50
2023-05-22T13:49:42.512Z,36.70
2023-05-22T13:52:10.547Z,36.80
2023-05-22T13:54:38.796Z,36.60
2023-05-22T13:57:07.221Z,36.00
2023-05-22T13:59:35.432Z,35.40
2023-05-22T14:02:05.091Z,34.70
2023-05-22T14:04:33.149Z,34.10
2023-05-22T14:07:01.367Z,33.60
2023-05-22T14:09:29.534Z,33.10
2023-05-22T14:11:58.104Z,32.90
2023-05-22T14:14:26.654Z,33.20
2023-05-22T14:16:55.018Z,33.70
2023-05-22T14:19:24.645Z,34.20
2023-05-22T14:21:52.846Z,34.30
2023-05-22T14:24:21.000Z,34.60
2023-05-22T14:26:49.099Z,34.90
2023-05-22T14:29:17.413Z,35.30
2023-05-22T14:31:49.705Z,35.70
2023-05-22T14:34:19.764Z,36.00
2023-05-22T14:36:49.353Z,36.10
2023-05-22T14:39:17.395Z,35.90
2023-05-22T14:41:45.409Z,35.90
2023-05-22T14:44:13.433Z,35.60
2023-05-22T14:46:41.387Z,35.30
2023-05-22T14:49:09.552Z,35.10
2023-05-22T14:51:37.573Z,34.90
2023-05-22T14:54:08.047Z,35.10
2023-05-22T14:56:36.066Z,35.20
2023-05-22T14:59:04.130Z,35.50
2023-05-22T15:01:32.211Z,35.70
2023-05-22T15:04:00.268Z,36.00
2023-05-22T15:06:28.445Z,36.10
2023-05-22T15:08:56.449Z,36.00
2023-05-22T15:11:27.405Z,35.60
2023-05-22T15:13:55.465Z,35.10
2023-05-22T15:16:23.708Z,34.60
2023-05-22T15:18:51.888Z,34.10
2023-05-22T15:21:20.332Z,33.60
2023-05-22T15:23:48.705Z,33.40
2023-05-22T15:26:16.788Z,33.50
2023-05-22T15:28:46.205Z,33.30
2023-05-22T15:31:14.876Z,33.10
2023-05-22T15:33:43.136Z,32.70
2023-05-22T15:36:11.154Z,32.50
2023-05-22T15:38:40.429Z,32.40
2023-05-22T15:41:08.588Z,32.60
2023-05-22T15:43:36.630Z,32.90
2023-05-22T15:46:06.766Z,33.40
2023-05-22T15:48:34.861Z,33.80
2023-05-22T15:51:02.803Z,34.00
2023-05-22T15:53:30.842Z,34.30
2023-05-22T15:55:58.834Z,34.40
2023-05-22T15:58:28.483Z,34.40
2023-05-22T16:00:56.594Z,34.70
2023-05-22T16:03:26.077Z,34.80
2023-05-22T16:05:54.135Z,34.60
2023-05-22T16:08:22.109Z,34.50
2023-05-22T16:10:50.104Z,34.50
2023-05-22T16:13:18.302Z,34.40
2023-05-22T16:15:46.316Z,34.00
2023-05-22T16:18:15.015Z,33.50
2023-05-22T16:20:44.672Z,33.10
2023-05-22T16:23:13.346Z,32.90
2023-05-22T16:25:41.639Z,33.00
2023-05-22T16:28:11.197Z,33.10
2023-05-22T16:30:40.191Z,33.10
2023-05-22T16:33:08.903Z,33.10
2023-05-22T16:35:36.983Z,32.90
2023-05-22T16:38:07.047Z,32.80
2023-05-22T16:40:35.410Z,32.60
2023-05-22T16:43:04.469Z,32.40
2023-05-22T16:45:32.717Z,32.10
2023-05-22T16:48:00.756Z,31.90
2023-05-22T16:50:28.802Z,31.70
2023-05-22T16:52:56.929Z,31.50
2023-05-22T16:55:26.316Z,31.30
2023-05-22T16:57:54.312Z,31.10
2023-05-22T17:00:22.632Z,30.80
2023-05-22T17:02:50.881Z,30.70
2023-05-22T17:05:20.036Z,30.50
2023-05-22T17:07:49.563Z,30.30
2023-05-22T17:10:17.823Z,30.10
2023-05-22T17:12:48.402Z,29.90
2023-05-22T17:15:16.409Z,29.80
2023-05-22T17:17:44.464Z,29.60
2023-05-22T17:20:13.310Z,29.50
2023-05-22T17:22:41.297Z,29.30
2023-05-22T17:25:10.364Z,29.20
2023-05-22T17:27:38.395Z,29.20
2023-05-22T17:30:09.039Z,29.20
2023-05-22T17:32:37.228Z,29.20
2023-05-22T17:35:07.124Z,29.20
2023-05-22T17:37:35.427Z,29.20
2023-05-22T17:40:04.821Z,29.20
2023-05-22T17:42:32.877Z,29.20
2023-05-22T17:45:00.907Z,29.20
2023-05-22T17:47:30.257Z,29.20
2023-05-22T17:49:58.312Z,29.20
2023-05-22T17:52:26.788Z,29.20
2023-05-22T17:54:55.924Z,29.20
2023-05-22T17:57:23.911Z,29.10
2023-05-22T17:59:52.146Z,29.00
2023-05-22T18:02:20.238Z,28.90
2023-05-22T18:04:49.591Z,28.80
2023-05-22T18:07:19.271Z,28.70
2023-05-22T18:09:47.337Z,28.60
2023-05-22T18:12:31.347Z,28.40
2023-05-22T18:15:00.408Z,28.20
2023-05-22T18:17:28.551Z,28.10
2023-05-22T18:19:57.898Z,27.90
2023-05-22T18:22:26.023Z,27.70
2023-05-22T18:24:53.995Z,27.50
2023-05-22T18:27:22.341Z,27.40
2023-05-22T18:29:51.772Z,27.20
2023-05-22T18:32:20.131Z,27.10
2023-05-22T18:34:48.666Z,26.90
2023-05-22T18:37:18.971Z,26.80
2023-05-22T18:39:47.298Z,26.60
2023-05-22T18:42:15.948Z,26.50
2023-05-22T18:44:43.948Z,26.30
2023-05-22T18:47:12.031Z,26.20
2023-05-22T18:49:40.327Z,26.10
2023-05-22T18:52:09.278Z,25.90
2023-05-22T18:54:38.615Z,25.80
2023-05-22T18:57:06.915Z,25.70
2023-05-22T18:59:34.959Z,25.60
2023-05-22T19:02:03.234Z,25.40
2023-05-22T19:04:31.796Z,25.30
2023-05-22T19:07:00.296Z,25.20
2023-05-22T19:09:28.287Z,25.10
2023-05-22T19:11:57.734Z,24.90
2023-05-22T19:14:25.807Z,24.90
2023-05-22T19:16:54.130Z,24.80
2023-05-22T19:19:22.488Z,24.60
2023-05-22T19:21:50.547Z,24.50
2023-05-22T19:24:18.550Z,24.40
2023-05-22T19:26:46.576Z,24.30
2023-05-22T19:29:16.036Z,24.20
2023-05-22T19:31:44.433Z,24.10
2023-05-22T19:34:12.522Z,24.00
2023-05-22T19:36:40.855Z,24.00
2023-05-22T19:39:09.137Z,23.90
2023-05-22T19:41:37.317Z,23.80
2023-05-22T19:44:05.756Z,23.70
2023-05-22T19:46:35.233Z,23.60
2023-05-22T19:49:03.288Z,23.40
2023-05-22T19:51:32.175Z,23.50
2023-05-22T19:54:01.021Z,23.40
2023-05-22T19:56:30.258Z,23.30
2023-05-22T19:58:58.496Z,23.20
2023-05-22T20:01:26.514Z,23.10
2023-05-22T20:03:56.445Z,23.00
2023-05-22T20:06:24.636Z,22.90
2023-05-22T20:08:52.621Z,22.70
2023-05-22T20:11:21.672Z,22.70
2023-05-22T20:13:49.747Z,22.60
2023-05-22T20:16:17.758Z,22.60
2023-05-22T20:18:46.552Z,22.50
2023-05-22T20:21:16.184Z,22.50
2023-05-22T20:23:44.218Z,22.40
2023-05-22T20:26:12.614Z,22.30
2023-05-22T20:28:40.581Z,22.20
2023-05-22T20:31:08.598Z,22.20
2023-05-22T20:33:36.922Z,22.10
2023-05-22T20:36:06.470Z,22.00
2023-05-22T20:38:35.942Z,21.90
2023-05-22T20:41:08.633Z,21.80
2023-05-22T20:43:37.658Z,21.80
2023-05-22T20:46:05.860Z,21.80
2023-05-22T20:48:33.885Z,21.70
2023-05-22T20:51:01.906Z,21.70
2023-05-22T20:53:30.703Z,21.60
2023-05-22T20:56:00.184Z,21.60
2023-05-22T20:58:28.217Z,21.60
2023-05-22T21:00:56.661Z,21.50
2023-05-22T21:03:25.918Z,21.40
2023-05-22T21:05:54.991Z,21.40
2023-05-22T21:08:23.140Z,21.40
2023-05-22T21:10:51.155Z,21.30
2023-05-22T21:13:20.750Z,21.20
2023-05-22T21:15:48.838Z,21.20
2023-05-22T21:18:16.933Z,21.20
2023-05-22T21:20:45.229Z,21.20
2023-05-22T21:23:13.428Z,21.00
2023-05-22T21:25:41.529Z,20.90
2023-05-22T21:28:09.529Z,20.90
2023-05-22T21:30:38.979Z,20.80
2023-05-22T21:33:07.277Z,20.70
2023-05-22T21:35:35.553Z,20.70
2023-05-22T21:38:03.678Z,20.60
2023-05-22T21:40:31.709Z,20.60
2023-05-22T21:42:59.860Z,20.50
2023-05-22T21:45:27.905Z,20.50
2023-05-22T21:47:57.376Z,20.40
2023-05-22T21:50:25.451Z,20.40
2023-05-22T21:52:53.545Z,20.30
2023-05-22T21:55:22.207Z,20.20
2023-05-22T21:57:50.263Z,20.10
2023-05-22T22:00:19.189Z,20.10
2023-05-22T22:02:47.355Z,20.10
2023-05-22T22:05:18.596Z,20.00
2023-05-22T22:07:46.695Z,19.90
2023-05-22T22:10:14.998Z,19.80
2023-05-22T22:15:12.983Z,19.80
2023-05-22T22:17:41.733Z,19.70
2023-05-22T22:20:10.946Z,19.60
2023-05-22T22:22:40.996Z,19.60
2023-05-22T22:25:09.608Z,19.50
2023-05-22T22:27:38.045Z,19.50
2023-05-22T22:30:07.248Z,19.50
2023-05-22T22:32:35.263Z,19.40
2023-05-22T22:35:04.122Z,19.40
2023-05-22T22:37:32.293Z,19.30
2023-05-22T22:40:01.713Z,19.30
2023-05-22T22:42:29.909Z,19.30
2023-05-22T22:44:57.923Z,19.30
2023-05-22T22:47:26.037Z,19.20
2023-05-22T22:49:57.229Z,19.10
2023-05-22T22:52:25.926Z,19.10
2023-05-22T22:54:54.132Z,19.10
2023-05-22T22:57:23.738Z,19.00
2023-05-22T22:59:52.186Z,19.00
2023-05-22T23:02:20.309Z,18.90
2023-05-22T23:04:48.534Z,18.90
2023-05-22T23:07:16.612Z,18.80
2023-05-22T23:09:44.626Z,18.80
2023-05-22T23:12:12.691Z,18.70
2023-05-22T23:14:42.060Z,18.70
2023-05-22T23:17:10.091Z,18.60
2023-05-22T23:19:38.065Z,18.60
2023-05-22T23:22:06.254Z,18.50
2023-05-22T23:24:34.243Z,18.50
2023-05-22T23:27:02.349Z,18.50
2023-05-22T23:29:30.566Z,18.40
2023-05-22T23:32:00.314Z,18.40
2023-05-22T23:34:28.652Z,18.40
2023-05-22T23:36:56.640Z,18.40
2023-05-22T23:39:24.728Z,18.30
2023-05-22T23:41:54.163Z,18.30
2023-05-22T23:44:22.461Z,18.20
2023-05-22T23:46:51.153Z,18.20
2023-05-22T23:49:21.529Z,18.10
2023-05-22T23:51:49.702Z,18.10
2023-05-22T23:54:18.183Z,18.00
2023-05-22T23:56:46.528Z,18.00
2023-05-22T23:59:14.580Z,17.90
